createdAt,value
2022-10-24T00:01:29.412Z,2.10
2022-10-24T00:03:57.258Z,2.00
2022-10-24T00:06:25.103Z,1.80
2022-10-24T00:08:52.782Z,1.70
2022-10-24T00:11:22.979Z,1.70
2022-10-24T00:13:51.566Z,1.70
2022-10-24T00:16:19.766Z,1.70
2022-10-24T00:18:47.965Z,1.70
2022-10-24T00:21:15.650Z,1.80
2022-10-24T00:23:43.079Z,1.70
2022-10-24T00:26:11.748Z,1.70
2022-10-24T00:28:40.011Z,1.80
2022-10-24T00:31:12.737Z,1.90
2022-10-24T00:33:40.602Z,2.00
2022-10-24T00:36:13.980Z,2.10
2022-10-24T00:38:41.666Z,2.20
2022-10-24T00:41:14.287Z,2.20
2022-10-24T00:43:41.718Z,2.20
2022-10-24T00:46:09.354Z,2.20
2022-10-24T00:48:36.827Z,2.20
2022-10-24T00:51:10.700Z,3.10
2022-10-24T00:53:44.734Z,2.30
2022-10-24T00:56:15.337Z,2.20
2022-10-24T00:58:45.017Z,2.20
2022-10-24T01:01:12.995Z,2.10
2022-10-24T01:03:40.560Z,2.90
2022-10-24T01:06:27.265Z,2.20
2022-10-24T01:09:19.472Z,2.20
2022-10-24T01:12:10.110Z,2.10
2022-10-24T01:15:11.584Z,2.20
2022-10-24T01:17:47.959Z,1.70
2022-10-24T01:20:34.138Z,2.10
2022-10-24T01:23:13.047Z,1.60
2022-10-24T01:25:55.603Z,1.70
2022-10-24T01:28:30.437Z,1.70
2022-10-24T01:31:07.935Z,2.00
2022-10-24T01:33:44.466Z,3.40
2022-10-24T01:36:21.259Z,2.40
2022-10-24T01:38:58.054Z,2.20
2022-10-24T01:41:28.958Z,1.90
2022-10-24T01:44:05.438Z,2.30
2022-10-24T01:46:39.817Z,1.70
2022-10-24T01:49:13.840Z,2.90
2022-10-24T01:51:43.102Z,2.60
2022-10-24T01:54:13.701Z,2.10
2022-10-24T01:56:41.359Z,2.90
2022-10-24T01:59:29.142Z,2.90
2022-10-24T02:02:11.543Z,3.30
2022-10-24T02:04:44.839Z,1.40
2022-10-24T02:07:14.029Z,2.20
2022-10-24T02:09:47.092Z,2.70
2022-10-24T02:12:16.147Z,1.90
2022-10-24T02:14:52.023Z,1.30
2022-10-24T02:17:19.693Z,1.40
2022-10-24T02:19:48.128Z,3.30
2022-10-24T02:22:33.620Z,3.40
2022-10-24T02:25:07.613Z,1.60
2022-10-24T02:27:48.308Z,2.50
2022-10-24T02:30:23.645Z,1.60
2022-10-24T02:32:55.242Z,2.90
2022-10-24T02:35:27.163Z,2.00
2022-10-24T02:38:23.139Z,3.00
2022-10-24T02:40:51.945Z,1.80
2022-10-24T02:43:22.231Z,2.40
2022-10-24T02:45:54.637Z,3.50
2022-10-24T02:48:26.811Z,2.20
2022-10-24T02:50:54.163Z,3.20
2022-10-24T02:53:25.201Z,1.80
2022-10-24T02:55:52.972Z,3.90
2022-10-24T02:58:20.605Z,2.60
2022-10-24T03:00:48.386Z,2.50
2022-10-24T03:03:15.870Z,2.60
2022-10-24T03:05:43.193Z,2.00
2022-10-24T03:08:10.683Z,4.00
2022-10-24T03:10:38.036Z,1.90
2022-10-24T03:13:05.658Z,4.20
2022-10-24T03:15:33.382Z,4.20
2022-10-24T03:18:00.773Z,1.90
2022-10-24T03:20:28.233Z,3.70
2022-10-24T03:22:55.725Z,3.90
2022-10-24T03:25:23.146Z,3.60
2022-10-24T03:27:50.496Z,3.80
2022-10-24T03:30:17.812Z,3.40
2022-10-24T03:32:45.324Z,3.30
2022-10-24T03:35:14.239Z,2.40
2022-10-24T03:37:42.359Z,3.80
2022-10-24T03:40:11.099Z,3.30
2022-10-24T03:42:38.658Z,1.50
2022-10-24T03:45:06.700Z,3.40
2022-10-24T03:47:34.179Z,1.40
2022-10-24T03:50:06.112Z,1.60
2022-10-24T03:52:33.614Z,1.20
2022-10-24T03:55:03.825Z,4.00
2022-10-24T03:57:31.265Z,-0.60
2022-10-24T03:59:58.774Z,3.90
2022-10-24T04:02:26.458Z,3.50
2022-10-24T04:04:53.977Z,1.20
2022-10-24T04:07:21.709Z,2.20
2022-10-24T04:09:49.296Z,2.40
2022-10-24T04:12:16.805Z,1.10
2022-10-24T04:14:44.100Z,2.60
2022-10-24T04:17:11.596Z,2.80
2022-10-24T04:19:40.067Z,3.70
2022-10-24T04:22:07.536Z,1.80
2022-10-24T04:24:34.907Z,2.80
2022-10-24T04:27:02.395Z,1.10
2022-10-24T04:29:29.892Z,1.00
2022-10-24T04:31:57.409Z,2.00
2022-10-24T04:34:24.929Z,3.70
2022-10-24T04:36:53.353Z,3.10
2022-10-24T04:39:21.474Z,2.90
2022-10-24T04:41:48.991Z,1.30
2022-10-24T04:44:16.758Z,1.10
2022-10-24T04:46:47.892Z,1.90
2022-10-24T04:49:16.646Z,1.20
2022-10-24T04:51:44.013Z,3.00
2022-10-24T04:54:13.515Z,2.90
2022-10-24T04:56:40.914Z,3.60
2022-10-24T04:59:08.265Z,2.60
2022-10-24T05:01:35.772Z,1.30
2022-10-24T05:04:03.451Z,1.30
2022-10-24T05:06:31.069Z,1.70
2022-10-24T05:08:58.697Z,1.20
2022-10-24T05:11:26.923Z,1.60
2022-10-24T05:13:55.248Z,1.40
2022-10-24T05:16:22.823Z,1.30
2022-10-24T05:18:50.623Z,3.30
2022-10-24T05:21:18.135Z,1.40
2022-10-24T05:23:46.787Z,1.50
2022-10-24T05:26:14.180Z,1.60
2022-10-24T05:28:41.641Z,4.20
2022-10-24T05:31:10.221Z,3.50
2022-10-24T05:33:38.990Z,3.70
2022-10-24T05:36:06.951Z,1.60
2022-10-24T05:38:34.548Z,1.90
2022-10-24T05:41:02.051Z,2.50
2022-10-24T05:43:29.556Z,2.60
2022-10-24T05:45:58.656Z,4.10
2022-10-24T05:48:26.516Z,1.50
2022-10-24T05:50:59.000Z,2.50
2022-10-24T05:53:27.723Z,1.40
2022-10-24T05:55:55.513Z,1.30
2022-10-24T05:58:23.424Z,1.30
2022-10-24T06:00:54.073Z,3.00
2022-10-24T06:03:22.760Z,2.90
2022-10-24T06:05:51.158Z,1.60
2022-10-24T06:08:18.896Z,1.20
2022-10-24T06:10:48.825Z,1.60
2022-10-24T06:13:20.395Z,-0.60
2022-10-24T06:15:49.854Z,1.30
2022-10-24T06:18:17.612Z,1.30
2022-10-24T06:20:45.153Z,1.00
2022-10-24T06:23:13.564Z,-0.70
2022-10-24T06:25:42.175Z,1.00
2022-10-24T06:28:09.780Z,3.20
2022-10-24T06:30:37.614Z,1.00
2022-10-24T06:33:05.498Z,1.30
2022-10-24T06:35:33.353Z,2.10
2022-10-24T06:38:01.287Z,1.20
2022-10-24T06:40:28.940Z,2.20
2022-10-24T06:42:58.427Z,1.70
2022-10-24T06:45:26.544Z,1.60
2022-10-24T06:47:55.249Z,2.80
2022-10-24T06:50:22.868Z,-0.30
2022-10-24T06:52:52.888Z,0.80
2022-10-24T06:55:20.781Z,0.50
2022-10-24T06:57:48.339Z,1.60
2022-10-24T07:00:20.582Z,1.50
2022-10-24T07:02:48.356Z,1.20
2022-10-24T07:05:16.022Z,3.40
2022-10-24T07:07:45.125Z,-1.40
2022-10-24T07:10:15.499Z,1.70
2022-10-24T07:12:43.947Z,2.80
2022-10-24T07:15:15.693Z,1.80
2022-10-24T07:17:46.587Z,-0.80
2022-10-24T07:20:15.115Z,1.90
2022-10-24T07:22:48.558Z,2.10
2022-10-24T07:25:23.989Z,2.30
2022-10-24T07:27:55.481Z,2.00
2022-10-24T07:30:23.448Z,3.00
2022-10-24T07:32:51.250Z,2.20
2022-10-24T07:35:18.927Z,2.60
2022-10-24T07:37:47.083Z,2.40
2022-10-24T07:40:18.641Z,2.30
2022-10-24T07:42:47.339Z,2.40
2022-10-24T07:45:15.603Z,2.30
2022-10-24T07:47:44.118Z,2.70
2022-10-24T07:50:12.480Z,4.10
2022-10-24T07:52:39.796Z,3.60
2022-10-24T07:55:07.905Z,3.70
2022-10-24T07:57:35.398Z,2.70
2022-10-24T08:00:04.964Z,3.90
2022-10-24T08:02:34.700Z,3.30
2022-10-24T08:05:02.736Z,3.50
2022-10-24T08:07:30.671Z,6.10
2022-10-24T08:09:59.345Z,4.40
2022-10-24T08:12:28.496Z,3.80
2022-10-24T08:14:58.899Z,3.80
2022-10-24T08:17:28.708Z,4.40
2022-10-24T08:19:57.315Z,3.50
2022-10-24T08:22:25.260Z,3.90
2022-10-24T08:24:54.130Z,3.80
2022-10-24T08:27:22.029Z,4.00
2022-10-24T08:29:52.644Z,4.10
2022-10-24T08:32:21.962Z,4.20
2022-10-24T08:34:50.235Z,4.20
2022-10-24T08:37:18.040Z,4.70
2022-10-24T08:39:46.003Z,5.40
2022-10-24T08:42:17.542Z,4.90
2022-10-24T08:44:48.137Z,4.50
2022-10-24T08:50:25.757Z,4.90
2022-10-24T08:53:15.257Z,4.80
2022-10-24T08:55:50.743Z,4.70
2022-10-24T08:58:24.433Z,4.70
2022-10-24T09:00:54.989Z,1.70
2022-10-24T09:06:29.275Z,5.10
2022-10-24T09:09:06.146Z,5.20
2022-10-24T09:11:53.646Z,5.10
2022-10-24T09:14:24.708Z,5.20
2022-10-24T09:16:57.320Z,5.70
2022-10-24T09:19:28.644Z,5.30
2022-10-24T09:21:59.428Z,5.60
2022-10-24T09:24:47.854Z,5.50
2022-10-24T09:27:23.376Z,5.60
2022-10-24T09:29:52.149Z,5.70
2022-10-24T09:32:32.653Z,5.20
2022-10-24T09:35:03.651Z,5.80
2022-10-24T09:37:44.277Z,5.90
2022-10-24T09:40:19.660Z,6.00
2022-10-24T09:43:14.455Z,6.10
2022-10-24T09:45:48.423Z,6.40
2022-10-24T09:48:39.061Z,6.20
2022-10-24T09:51:09.055Z,6.20
2022-10-24T09:54:15.178Z,6.50
2022-10-24T09:56:43.356Z,6.30
2022-10-24T09:59:21.461Z,6.50
2022-10-24T10:01:51.249Z,6.30
2022-10-24T10:04:21.914Z,7.00
2022-10-24T10:06:51.985Z,6.50
2022-10-24T10:09:32.078Z,6.00
2022-10-24T10:12:05.000Z,6.80
2022-10-24T10:14:39.257Z,6.60
2022-10-24T10:17:08.139Z,6.60
2022-10-24T10:19:39.107Z,6.80
2022-10-24T10:22:22.531Z,6.80
2022-10-24T10:24:50.801Z,6.90
2022-10-24T10:27:36.969Z,7.20
2022-10-24T10:30:15.211Z,7.10
2022-10-24T10:33:11.542Z,7.40
2022-10-24T10:35:54.359Z,7.10
2022-10-24T10:38:44.393Z,7.30
2022-10-24T10:41:24.643Z,7.20
2022-10-24T10:44:17.639Z,7.20
2022-10-24T10:46:49.792Z,7.40
2022-10-24T10:49:29.797Z,7.30
2022-10-24T10:52:17.278Z,7.30
2022-10-24T10:55:04.029Z,7.40
2022-10-24T10:57:43.897Z,6.80
2022-10-24T11:00:17.557Z,7.20
2022-10-24T11:03:05.359Z,7.10
2022-10-24T11:05:52.161Z,7.10
2022-10-24T11:08:25.293Z,7.00
2022-10-24T11:11:05.472Z,7.60
2022-10-24T11:14:21.285Z,6.80
2022-10-24T11:16:51.151Z,9.30
2022-10-24T11:19:48.386Z,7.20
2022-10-24T11:22:29.903Z,7.20
2022-10-24T11:25:50.985Z,7.20
2022-10-24T11:28:48.084Z,7.20
2022-10-24T11:31:24.823Z,8.60
2022-10-24T11:33:58.845Z,7.20
2022-10-24T11:36:51.998Z,7.30
2022-10-24T11:39:42.790Z,8.60
2022-10-24T11:42:21.600Z,7.60
2022-10-24T11:44:55.919Z,7.20
2022-10-24T11:47:27.632Z,7.10
2022-10-24T11:50:12.436Z,7.30
2022-10-24T11:52:44.902Z,7.40
2022-10-24T11:55:20.704Z,7.30
2022-10-24T11:57:53.690Z,7.20
2022-10-24T12:00:29.228Z,7.10
2022-10-24T12:03:26.643Z,7.20
2022-10-24T12:06:45.713Z,6.70
2022-10-24T12:09:50.301Z,7.10
2022-10-24T12:12:55.128Z,7.10
2022-10-24T12:15:48.863Z,7.00
2022-10-24T12:18:39.823Z,7.40
2022-10-24T12:21:15.449Z,7.30
2022-10-24T12:23:52.084Z,7.10
2022-10-24T12:26:28.427Z,6.50
2022-10-24T12:29:00.343Z,7.20
2022-10-24T12:31:35.974Z,7.10
2022-10-24T12:34:16.028Z,7.10
2022-10-24T12:37:12.426Z,6.90
2022-10-24T12:39:48.493Z,6.90
2022-10-24T12:42:36.356Z,7.10
2022-10-24T12:45:13.087Z,6.90
2022-10-24T12:47:43.981Z,6.80
2022-10-24T12:50:23.968Z,6.60
2022-10-24T12:53:39.395Z,7.40
2022-10-24T12:56:10.766Z,7.30
2022-10-24T12:58:43.454Z,7.50
2022-10-24T13:01:36.674Z,7.20
2022-10-24T13:05:04.811Z,7.20
2022-10-24T13:08:22.121Z,6.80
2022-10-24T13:11:35.367Z,6.90
2022-10-24T13:14:38.538Z,6.80
2022-10-24T13:17:13.404Z,7.40
2022-10-24T13:19:40.914Z,6.70
2022-10-24T13:22:29.750Z,6.70
2022-10-24T13:25:00.576Z,6.90
2022-10-24T13:27:31.279Z,6.70
2022-10-24T13:30:02.543Z,6.70
2022-10-24T13:32:33.243Z,6.70
2022-10-24T13:35:03.301Z,6.90
2022-10-24T13:37:44.745Z,6.40
2022-10-24T13:40:27.757Z,6.80
2022-10-24T13:43:01.467Z,6.70
2022-10-24T13:45:46.197Z,6.80
2022-10-24T13:48:21.015Z,6.60
2022-10-24T13:51:14.851Z,6.60
2022-10-24T13:53:53.797Z,6.50
2022-10-24T13:56:21.236Z,6.40
2022-10-24T13:58:49.351Z,6.20
2022-10-24T14:01:27.010Z,6.40
2022-10-24T14:03:56.415Z,6.40
2022-10-24T14:06:25.952Z,6.30
2022-10-24T14:09:05.867Z,6.30
2022-10-24T14:11:39.691Z,6.30
2022-10-24T14:14:21.153Z,6.30
2022-10-24T14:17:04.326Z,6.30
2022-10-24T14:19:36.170Z,6.20
2022-10-24T14:22:18.507Z,6.20
2022-10-24T14:24:48.408Z,6.20
2022-10-24T14:27:16.833Z,6.20
2022-10-24T14:29:54.032Z,6.80
2022-10-24T14:32:21.548Z,6.20
2022-10-24T14:34:49.676Z,6.20
2022-10-24T14:37:28.493Z,6.10
2022-10-24T14:39:56.729Z,6.10
2022-10-24T14:42:24.959Z,6.20
2022-10-24T14:44:56.165Z,6.00
2022-10-24T14:47:27.658Z,6.00
2022-10-24T14:49:55.487Z,5.90
2022-10-24T14:52:29.839Z,5.60
2022-10-24T14:55:18.090Z,5.80
2022-10-24T14:57:50.969Z,6.20
2022-10-24T15:00:25.728Z,5.80
2022-10-24T15:02:57.572Z,5.70
2022-10-24T15:05:33.565Z,5.70
2022-10-24T15:08:21.475Z,6.00
2022-10-24T15:11:00.889Z,5.60
2022-10-24T15:13:33.207Z,5.70
2022-10-24T15:16:01.691Z,5.50
2022-10-24T15:18:42.687Z,5.50
2022-10-24T15:21:20.095Z,5.20
2022-10-24T15:23:57.063Z,5.30
2022-10-24T15:26:27.216Z,5.80
2022-10-24T15:28:56.195Z,5.60
2022-10-24T15:31:27.693Z,5.20
2022-10-24T15:33:56.159Z,5.20
2022-10-24T15:36:30.698Z,5.20
2022-10-24T15:39:15.351Z,5.10
2022-10-24T15:41:43.334Z,5.00
2022-10-24T15:44:18.750Z,5.40
2022-10-24T15:46:47.108Z,5.40
2022-10-24T15:49:15.455Z,5.00
2022-10-24T15:51:49.027Z,4.50
2022-10-24T15:54:19.869Z,4.90
2022-10-24T15:56:47.612Z,5.00
2022-10-24T15:59:15.263Z,5.00
2022-10-24T16:01:55.548Z,4.90
2022-10-24T16:04:24.673Z,4.80
2022-10-24T16:06:53.567Z,4.80
2022-10-24T16:09:23.777Z,4.70
2022-10-24T16:11:51.370Z,4.60
2022-10-24T16:14:21.179Z,5.30
2022-10-24T16:16:49.237Z,4.60
2022-10-24T16:19:16.857Z,4.30
2022-10-24T16:21:44.855Z,3.90
2022-10-24T16:24:13.264Z,4.30
2022-10-24T16:26:41.653Z,4.60
2022-10-24T16:29:10.963Z,4.30
2022-10-24T16:31:38.483Z,4.20
2022-10-24T16:34:07.495Z,4.20
2022-10-24T16:36:35.386Z,5.90
2022-10-24T16:39:03.409Z,4.40
2022-10-24T16:41:30.998Z,3.90
2022-10-24T16:43:58.528Z,4.40
2022-10-24T16:46:27.887Z,4.30
2022-10-24T16:48:56.401Z,4.30
2022-10-24T16:51:27.905Z,4.30
2022-10-24T16:53:55.454Z,4.20
2022-10-24T16:56:23.062Z,4.20
2022-10-24T16:58:50.422Z,3.80
2022-10-24T17:01:18.078Z,3.40
2022-10-24T17:03:45.848Z,3.50
2022-10-24T17:06:13.992Z,3.50
2022-10-24T17:08:41.810Z,3.40
2022-10-24T17:11:39.547Z,3.40
2022-10-24T17:13:59.550Z,3.30
2022-10-24T17:16:27.400Z,3.30
2022-10-24T17:19:12.209Z,3.30
2022-10-24T17:21:42.844Z,3.00
2022-10-24T17:24:12.322Z,3.20
2022-10-24T17:26:40.926Z,3.20
2022-10-24T17:29:12.377Z,3.30
2022-10-24T17:31:39.947Z,3.80
2022-10-24T17:34:07.663Z,3.10
2022-10-24T17:36:38.387Z,2.90
2022-10-24T17:39:11.581Z,3.20
2022-10-24T17:41:41.068Z,2.80
2022-10-24T17:44:16.830Z,2.70
2022-10-24T17:46:45.604Z,2.70
2022-10-24T17:49:17.870Z,2.80
2022-10-24T17:51:49.170Z,2.70
2022-10-24T17:54:17.227Z,2.70
2022-10-24T17:56:44.848Z,2.60
2022-10-24T17:59:12.432Z,2.70
2022-10-24T18:01:40.029Z,2.60
2022-10-24T18:04:07.573Z,2.50
2022-10-24T18:06:37.196Z,2.50
2022-10-24T18:09:06.694Z,2.10
2022-10-24T18:11:34.685Z,3.20
2022-10-24T18:14:02.278Z,2.10
2022-10-24T18:16:30.713Z,2.10
2022-10-24T18:18:58.519Z,2.00
2022-10-24T18:21:27.593Z,1.90
2022-10-24T18:23:56.088Z,1.90
2022-10-24T18:26:26.451Z,1.90
2022-10-24T18:28:55.816Z,1.80
2022-10-24T18:31:25.735Z,1.70
2022-10-24T18:33:53.508Z,2.90
2022-10-24T18:36:24.784Z,1.90
2022-10-24T18:38:55.339Z,1.60
2022-10-24T18:41:32.432Z,1.60
2022-10-24T18:44:02.261Z,1.60
2022-10-24T18:46:30.203Z,1.70
2022-10-24T18:48:58.269Z,1.70
2022-10-24T18:51:41.059Z,1.60
2022-10-24T18:54:14.433Z,2.50
2022-10-24T18:56:42.965Z,1.70
2022-10-24T18:59:19.353Z,1.70
2022-10-24T19:02:11.543Z,1.70
2022-10-24T19:04:42.373Z,1.70
2022-10-24T19:07:11.122Z,1.80
2022-10-24T19:09:38.511Z,1.80
2022-10-24T19:12:07.241Z,1.70
2022-10-24T19:14:34.905Z,1.60
2022-10-24T19:17:07.540Z,1.70
2022-10-24T19:19:35.197Z,1.70
2022-10-24T19:22:02.733Z,2.00
2022-10-24T19:24:30.492Z,1.70
2022-10-24T19:26:58.019Z,2.90
2022-10-24T19:29:25.635Z,3.00
2022-10-24T19:31:53.090Z,1.60
2022-10-24T19:34:20.614Z,3.60
2022-10-24T19:36:48.087Z,1.70
2022-10-24T19:39:15.534Z,1.80
2022-10-24T19:41:43.305Z,2.20
2022-10-24T19:44:10.942Z,2.00
2022-10-24T19:46:38.761Z,2.00
2022-10-24T19:49:06.198Z,2.00
2022-10-24T19:51:33.768Z,1.90
2022-10-24T19:54:01.152Z,1.90
2022-10-24T19:56:31.456Z,3.50
2022-10-24T19:58:58.997Z,1.80
2022-10-24T20:01:29.543Z,1.70
2022-10-24T20:03:57.632Z,3.00
2022-10-24T20:06:26.606Z,1.50
2022-10-24T20:08:54.158Z,1.50
2022-10-24T20:11:22.591Z,1.30
2022-10-24T20:13:50.695Z,1.10
2022-10-24T20:16:18.419Z,1.60
2022-10-24T20:18:46.498Z,1.10
2022-10-24T20:21:18.195Z,1.10
2022-10-24T20:23:49.551Z,0.90
2022-10-24T20:26:22.894Z,0.80
2022-10-24T20:28:52.447Z,0.80
2022-10-24T20:31:39.315Z,4.10
2022-10-24T20:34:11.088Z,1.00
2022-10-24T20:36:44.776Z,3.00
2022-10-24T20:39:13.792Z,1.00
2022-10-24T20:41:42.364Z,1.50
2022-10-24T20:44:11.437Z,0.90
2022-10-24T20:46:39.226Z,1.40
2022-10-24T20:49:06.673Z,3.20
2022-10-24T20:51:34.233Z,0.80
2022-10-24T20:54:02.509Z,0.80
2022-10-24T20:56:30.065Z,1.00
2022-10-24T20:58:57.650Z,0.90
2022-10-24T21:01:27.705Z,1.00
2022-10-24T21:03:56.392Z,1.30
2022-10-24T21:06:32.645Z,1.30
2022-10-24T21:11:35.630Z,1.20
2022-10-24T21:14:09.906Z,2.80
2022-10-24T21:16:37.311Z,1.50
2022-10-24T21:19:05.447Z,1.50
2022-10-24T21:21:33.278Z,1.50
2022-10-24T21:24:04.379Z,1.60
2022-10-24T21:26:38.444Z,1.80
2022-10-24T21:29:09.290Z,1.80
2022-10-24T21:31:55.033Z,1.80
2022-10-24T21:34:23.150Z,1.80
2022-10-24T21:36:51.149Z,1.80
2022-10-24T21:39:18.554Z,1.80
2022-10-24T21:41:46.147Z,2.20
2022-10-24T21:44:14.755Z,1.80
2022-10-24T21:46:42.676Z,1.80
2022-10-24T21:49:11.377Z,1.70
2022-10-24T21:51:41.555Z,1.60
2022-10-24T21:54:25.587Z,1.50
2022-10-24T21:56:53.075Z,1.50
2022-10-24T21:59:21.380Z,1.50
2022-10-24T22:01:51.084Z,2.90
2022-10-24T22:04:19.415Z,1.40
2022-10-24T22:06:49.335Z,1.60
2022-10-24T22:09:22.154Z,1.80
2022-10-24T22:11:50.064Z,2.50
2022-10-24T22:14:18.175Z,1.70
2022-10-24T22:16:46.222Z,1.70
2022-10-24T22:19:15.156Z,1.80
2022-10-24T22:21:49.163Z,1.40
2022-10-24T22:24:22.365Z,1.60
2022-10-24T22:26:51.570Z,1.70
2022-10-24T22:29:21.854Z,1.80
2022-10-24T22:31:50.099Z,2.20
2022-10-24T22:34:23.619Z,1.90
2022-10-24T22:37:28.021Z,1.90
2022-10-24T22:39:55.745Z,1.80
2022-10-24T22:42:23.477Z,1.80
2022-10-24T22:44:51.267Z,1.80
2022-10-24T22:47:45.809Z,1.80
2022-10-24T22:50:42.632Z,1.70
2022-10-24T22:53:15.888Z,0.60
2022-10-24T22:56:09.715Z,1.20
2022-10-24T22:58:37.630Z,1.10
2022-10-24T23:01:24.096Z,1.10
2022-10-24T23:04:07.810Z,1.20
2022-10-24T23:06:53.079Z,1.30
2022-10-24T23:09:20.709Z,1.20
2022-10-24T23:11:48.587Z,1.20
2022-10-24T23:17:00.168Z,1.80
2022-10-24T23:19:30.277Z,1.80
2022-10-24T23:22:24.843Z,1.90
2022-10-24T23:24:54.619Z,1.70
2022-10-24T23:27:43.374Z,1.70
2022-10-24T23:30:22.874Z,1.50
2022-10-24T23:32:51.766Z,1.50
2022-10-24T23:35:20.312Z,1.50
2022-10-24T23:37:51.007Z,1.80
2022-10-24T23:40:27.428Z,1.70
2022-10-24T23:42:56.085Z,1.90
2022-10-24T23:45:27.116Z,1.70
2022-10-24T23:48:13.495Z,1.80
2022-10-24T23:50:58.639Z,1.80
2022-10-24T23:53:53.270Z,1.70
2022-10-24T23:56:23.897Z,1.70
2022-10-24T23:58:52.625Z,2.00
